Detall de PIREP

Printer-friendly versionPDF version

[2010/01/14 08:29:00]
Flight IATA:CT2110
Pilot Number:041
Company ICAO:CAT
Aircraft Type:F50/A
PAX:30
Departing Airport: LEVC
Destination Airport: LEST
Alternate Airport:LEAS
Online: VATSIM
Route:CENTA2B A33 PRADO A33 CJN A33 HORTA A33 MAGIN A33 INDEG A33 DISKO A33 ZMR A33 BARKO1G
Flight Level:FL190
No Slew and time accel
No pause
Crash detect
Detect pilot in Cockpit between each 30 and 45 minutes
08:29 Zero fuel Weight: 34702 Lbs, Fuel Weight: 4953 Lbs
08:29 VATSIM:LEVC 140800Z 27028G45KT 9999 FEW022 16/07 Q0999 NOSIG
08:29 VATSIM:LEST 140800Z 26006KT 230V290 9999 SCT020 BKN045 07/06 Q1008 NOSIG
08:29 VOICE CATALONIAN
08:31 Parking Brakes off
08:38 Take-off
08:38 Take off Weight: 39543 Lbs
08:38 Wind: 183º @ 007 Knots Heading: 117º
08:38 POS N39º 29´ 13´´ W000º 28´ 33´´
08:38 Gear Up: 134 Knots
08:38 Flaps:1 at 134 Knots
08:40 Flaps:0 at 194 Knots
08:53 Wind:27
4º@051 Knots Heading: 294º Ground Speed: 181 Knots Altitude 8494 ft
09:01 TOC
09:01 Fuel Weight: 4022 Lb
09:08 Wind:281º@060 Knots Heading: 294º Ground Speed: 200 Knots Altitude 18576 ft
09:23 Wind:287º@066 Knots Heading: 294º Ground Speed: 193 Knots Altitude 18658 ft
09:38 Wind:287º@066 Knots Heading: 294º Ground Speed: 193 Knots Altitude 18628 ft
09:53 Wind:298º@064 Knots Heading: 296º Ground Speed: 192 Knots Altitude 18923 ft
10:01 TOD
10:01 Fuel Weight: 2324 Lb
10:08 Wind:295º@062 Knots Heading: 295º Ground Speed: 212 Knots Altitude 15075 ft
10:23 Wind:296º@053 Knots Heading: 302º Ground Speed: 205 Knots Altitude 9019 ft
10:38 Wind:308º@048 Knots Heading: 279º Ground Speed: 208 Knots Altitude 8605 ft
10:53 Wind:310º@036 Knots Heading: 341º Ground Speed: 213 Knots Altitude 4498 ft
10:55 Flaps:1 at 171 Knots
10:55 Flaps:2 at 165 Knots
10:55 Flaps:4 at 148 Knot
s
10:55 Gear Down: 146 Knots
10:58 TouchDown:Rate -143 ft/min Speed: 105 Knots
10:58 Flaps:3 at 58 Knots
10:58 VATSIM:LEST 141030Z 26005KT 210V310 9999 FEW025 09/07 Q1011 NOSIG
10:58 Land
10:58 Wind:274º@015 Knots
10:58 Heading: 346º
10:58 Flight Duration: 02:20
10:58 Landing Weight: 35296 Lbs
10:58 POS N42º 53´ 47´´ W008º 24´ 54´´
11:00 Parking brakes on
11:00 Block to Block Duration: 02:29
11:00 Final Fuel: 575 Lbls
11:00 Spent Fuel: 4378 Lbls
11:00 Flight Length: 452 NM
11:00 TOD Land Length: 189 NM

Exportar CSV

Powered by Drupal - Modified by Danger4k